Cornwell, South Carolina
Current Conditions -  °F | °C
As of 6:55 PM on Monday 20 Oct 2014 (Local Time) from KLKR Reporting Station
Clear Clear  
Wind Chill: 63°   Ceiling: Unl
Heat Index: 63°   Visibility: 10mi
Dew Point: 50°   Wind: 0mph
Humidity: 63%   Direction: NA
Pressure: 30"   Gusts: NA
Location:  34.5772°N, 81.1021°W
Report Text: KLKR 202255Z AUTO 00000KT 10SM CLR 17/10 A3000 RMK AO2
Loading
Personal Weather Stations






























Interactive Weather Map
Tropical Storm Tracking
New forecast layout! Learn more

10-Day Weather Forecast

Advertisements
Track Severe Weather on mobile